sensor_id;sensor_type;location;lat;lon;timestamp;P1;durP1;ratioP1;P2;durP2;ratioP2
15130;SDS011;7666;50.920;4.628;2023-04-03T00:02:27;7.30;;;6.40;;
15130;SDS011;7666;50.920;4.628;2023-04-03T00:05:13;8.83;;;8.03;;
15130;SDS011;7666;50.920;4.628;2023-04-03T00:07:59;7.93;;;6.50;;
15130;SDS011;7666;50.920;4.628;2023-04-03T00:10:47;7.63;;;6.83;;
15130;SDS011;7666;50.920;4.628;2023-04-03T00:13:33;7.43;;;6.57;;
15130;SDS011;7666;50.920;4.628;2023-04-03T00:16:19;14.77;;;12.60;;
15130;SDS011;7666;50.920;4.628;2023-04-03T00:19:05;14.90;;;13.30;;
15130;SDS011;7666;50.920;4.628;2023-04-03T00:21:52;7.90;;;7.10;;
15130;SDS011;7666;50.920;4.628;2023-04-03T00:24:38;8.87;;;6.53;;
15130;SDS011;7666;50.920;4.628;2023-04-03T00:27:24;5.30;;;4.73;;
15130;SDS011;7666;50.920;4.628;2023-04-03T00:30:11;6.07;;;5.47;;
15130;SDS011;7666;50.920;4.628;2023-04-03T00:33:00;6.37;;;5.77;;
15130;SDS011;7666;50.920;4.628;2023-04-03T00:35:47;7.63;;;6.83;;
15130;SDS011;7666;50.920;4.628;2023-04-03T00:38:33;7.73;;;6.90;;
15130;SDS011;7666;50.920;4.628;2023-04-03T00:41:20;7.73;;;6.93;;
15130;SDS011;7666;50.920;4.628;2023-04-03T00:44:20;7.00;;;6.30;;
15130;SDS011;7666;50.920;4.628;2023-04-03T00:47:07;7.77;;;7.03;;
15130;SDS011;7666;50.920;4.628;2023-04-03T00:49:54;7.40;;;6.70;;
15130;SDS011;7666;50.920;4.628;2023-04-03T00:52:40;7.63;;;6.93;;
15130;SDS011;7666;50.920;4.628;2023-04-03T00:55:26;9.20;;;8.23;;
15130;SDS011;7666;50.920;4.628;2023-04-03T00:58:13;9.37;;;8.20;;
15130;SDS011;7666;50.920;4.628;2023-04-03T01:01:03;8.90;;;7.30;;
15130;SDS011;7666;50.920;4.628;2023-04-03T01:03:53;8.50;;;7.60;;
15130;SDS011;7666;50.920;4.628;2023-04-03T01:06:39;7.53;;;6.70;;
15130;SDS011;7666;50.920;4.628;2023-04-03T01:09:25;8.57;;;6.93;;
15130;SDS011;7666;50.920;4.628;2023-04-03T01:12:13;6.40;;;5.80;;
15130;SDS011;7666;50.920;4.628;2023-04-03T01:15:12;7.17;;;6.07;;
15130;SDS011;7666;50.920;4.628;2023-04-03T01:18:00;8.23;;;5.50;;
15130;SDS011;7666;50.920;4.628;2023-04-03T01:24:22;9.83;;;7.30;;
15130;SDS011;7666;50.920;4.628;2023-04-03T01:27:18;6.00;;;5.40;;
15130;SDS011;7666;50.920;4.628;2023-04-03T01:30:05;6.23;;;5.60;;
15130;SDS011;7666;50.920;4.628;2023-04-03T01:32:52;6.87;;;6.13;;
15130;SDS011;7666;50.920;4.628;2023-04-03T01:35:38;6.33;;;5.53;;
15130;SDS011;7666;50.920;4.628;2023-04-03T01:38:24;5.27;;;4.87;;
15130;SDS011;7666;50.920;4.628;2023-04-03T01:41:10;5.93;;;5.07;;
15130;SDS011;7666;50.920;4.628;2023-04-03T01:43:56;7.47;;;5.87;;
15130;SDS011;7666;50.920;4.628;2023-04-03T01:46:42;6.00;;;5.43;;
15130;SDS011;7666;50.920;4.628;2023-04-03T01:49:29;5.07;;;4.27;;
15130;SDS011;7666;50.920;4.628;2023-04-03T01:52:15;6.13;;;5.03;;
15130;SDS011;7666;50.920;4.628;2023-04-03T01:55:01;5.57;;;4.97;;
15130;SDS011;7666;50.920;4.628;2023-04-03T01:57:47;5.83;;;4.90;;
15130;SDS011;7666;50.920;4.628;2023-04-03T02:00:33;10.23;;;8.57;;
15130;SDS011;7666;50.920;4.628;2023-04-03T02:03:19;7.43;;;6.70;;
15130;SDS011;7666;50.920;4.628;2023-04-03T02:06:05;6.60;;;5.90;;
15130;SDS011;7666;50.920;4.628;2023-04-03T02:08:51;7.23;;;5.90;;
15130;SDS011;7666;50.920;4.628;2023-04-03T02:11:37;11.17;;;7.77;;
15130;SDS011;7666;50.920;4.628;2023-04-03T02:14:23;6.07;;;5.33;;
15130;SDS011;7666;50.920;4.628;2023-04-03T02:17:09;7.23;;;6.27;;
15130;SDS011;7666;50.920;4.628;2023-04-03T02:19:55;6.97;;;6.07;;
15130;SDS011;7666;50.920;4.628;2023-04-03T02:22:41;8.27;;;6.47;;
15130;SDS011;7666;50.920;4.628;2023-04-03T02:25:27;7.23;;;5.97;;
15130;SDS011;7666;50.920;4.628;2023-04-03T02:28:15;6.47;;;5.87;;
15130;SDS011;7666;50.920;4.628;2023-04-03T02:31:01;7.23;;;5.77;;
15130;SDS011;7666;50.920;4.628;2023-04-03T02:33:48;7.00;;;6.00;;
15130;SDS011;7666;50.920;4.628;2023-04-03T02:36:34;6.23;;;5.60;;
15130;SDS011;7666;50.920;4.628;2023-04-03T02:39:20;6.47;;;5.87;;
15130;SDS011;7666;50.920;4.628;2023-04-03T02:42:06;8.00;;;6.57;;
15130;SDS011;7666;50.920;4.628;2023-04-03T02:44:52;7.20;;;6.50;;
15130;SDS011;7666;50.920;4.628;2023-04-03T02:47:38;7.23;;;6.20;;
15130;SDS011;7666;50.920;4.628;2023-04-03T02:50:25;7.53;;;6.00;;
15130;SDS011;7666;50.920;4.628;2023-04-03T02:53:11;7.33;;;6.60;;
15130;SDS011;7666;50.920;4.628;2023-04-03T02:55:57;9.37;;;6.63;;
15130;SDS011;7666;50.920;4.628;2023-04-03T02:58:43;8.37;;;5.93;;
15130;SDS011;7666;50.920;4.628;2023-04-03T03:01:29;7.20;;;6.30;;
15130;SDS011;7666;50.920;4.628;2023-04-03T03:04:17;7.63;;;6.33;;
15130;SDS011;7666;50.920;4.628;2023-04-03T03:07:03;6.80;;;5.60;;
15130;SDS011;7666;50.920;4.628;2023-04-03T03:09:49;7.93;;;6.77;;
15130;SDS011;7666;50.920;4.628;2023-04-03T03:12:35;7.90;;;6.40;;
15130;SDS011;7666;50.920;4.628;2023-04-03T03:15:21;7.33;;;5.87;;
15130;SDS011;7666;50.920;4.628;2023-04-03T03:18:07;6.60;;;5.50;;
15130;SDS011;7666;50.920;4.628;2023-04-03T03:20:54;5.40;;;4.90;;
15130;SDS011;7666;50.920;4.628;2023-04-03T03:23:41;4.40;;;4.00;;
15130;SDS011;7666;50.920;4.628;2023-04-03T03:26:27;5.40;;;4.90;;
15130;SDS011;7666;50.920;4.628;2023-04-03T03:29:13;4.53;;;4.13;;
15130;SDS011;7666;50.920;4.628;2023-04-03T03:32:00;4.27;;;3.93;;
15130;SDS011;7666;50.920;4.628;2023-04-03T03:34:46;6.37;;;5.80;;
15130;SDS011;7666;50.920;4.628;2023-04-03T03:37:32;6.30;;;5.57;;
15130;SDS011;7666;50.920;4.628;2023-04-03T03:40:18;6.07;;;5.47;;
15130;SDS011;7666;50.920;4.628;2023-04-03T03:43:04;5.80;;;5.20;;
15130;SDS011;7666;50.920;4.628;2023-04-03T03:45:53;7.87;;;6.13;;
15130;SDS011;7666;50.920;4.628;2023-04-03T03:48:40;6.30;;;5.70;;
15130;SDS011;7666;50.920;4.628;2023-04-03T03:51:26;6.80;;;6.13;;
15130;SDS011;7666;50.920;4.628;2023-04-03T03:54:12;7.67;;;6.13;;
15130;SDS011;7666;50.920;4.628;2023-04-03T03:56:58;6.83;;;6.10;;
15130;SDS011;7666;50.920;4.628;2023-04-03T03:59:44;7.47;;;6.57;;
15130;SDS011;7666;50.920;4.628;2023-04-03T04:02:30;8.57;;;6.23;;
15130;SDS011;7666;50.920;4.628;2023-04-03T04:05:17;7.43;;;5.50;;
15130;SDS011;7666;50.920;4.628;2023-04-03T04:08:03;6.30;;;5.70;;
15130;SDS011;7666;50.920;4.628;2023-04-03T04:10:49;6.83;;;6.13;;
15130;SDS011;7666;50.920;4.628;2023-04-03T04:13:35;7.40;;;6.70;;
15130;SDS011;7666;50.920;4.628;2023-04-03T04:16:21;6.90;;;6.20;;
15130;SDS011;7666;50.920;4.628;2023-04-03T04:19:07;6.97;;;5.90;;
15130;SDS011;7666;50.920;4.628;2023-04-03T04:21:53;7.50;;;6.40;;
15130;SDS011;7666;50.920;4.628;2023-04-03T04:24:39;7.37;;;6.67;;
15130;SDS011;7666;50.920;4.628;2023-04-03T04:27:25;8.10;;;7.30;;
15130;SDS011;7666;50.920;4.628;2023-04-03T04:30:12;7.33;;;6.63;;
15130;SDS011;7666;50.920;4.628;2023-04-03T04:32:58;9.40;;;7.00;;
15130;SDS011;7666;50.920;4.628;2023-04-03T04:35:47;7.80;;;7.00;;
15130;SDS011;7666;50.920;4.628;2023-04-03T04:38:33;6.73;;;5.50;;
15130;SDS011;7666;50.920;4.628;2023-04-03T04:41:20;5.70;;;5.13;;
15130;SDS011;7666;50.920;4.628;2023-04-03T04:44:07;6.10;;;4.73;;
15130;SDS011;7666;50.920;4.628;2023-04-03T04:46:53;6.60;;;5.30;;
15130;SDS011;7666;50.920;4.628;2023-04-03T04:49:39;6.23;;;5.63;;
15130;SDS011;7666;50.920;4.628;2023-04-03T04:52:25;5.77;;;5.10;;
15130;SDS011;7666;50.920;4.628;2023-04-03T04:55:11;7.33;;;6.27;;
15130;SDS011;7666;50.920;4.628;2023-04-03T04:57:57;7.23;;;6.53;;
15130;SDS011;7666;50.920;4.628;2023-04-03T05:00:44;7.43;;;6.73;;
15130;SDS011;7666;50.920;4.628;2023-04-03T05:03:30;8.17;;;7.43;;
15130;SDS011;7666;50.920;4.628;2023-04-03T05:06:16;8.50;;;7.70;;
15130;SDS011;7666;50.920;4.628;2023-04-03T05:09:02;8.10;;;7.37;;
15130;SDS011;7666;50.920;4.628;2023-04-03T05:11:49;6.67;;;6.17;;
15130;SDS011;7666;50.920;4.628;2023-04-03T05:14:35;7.67;;;6.97;;
15130;SDS011;7666;50.920;4.628;2023-04-03T05:17:21;8.33;;;7.53;;
15130;SDS011;7666;50.920;4.628;2023-04-03T05:20:07;9.07;;;7.87;;
15130;SDS011;7666;50.920;4.628;2023-04-03T05:22:53;9.43;;;8.43;;
15130;SDS011;7666;50.920;4.628;2023-04-03T05:25:40;8.73;;;7.77;;
15130;SDS011;7666;50.920;4.628;2023-04-03T05:28:26;9.63;;;8.60;;
15130;SDS011;7666;50.920;4.628;2023-04-03T05:31:12;9.33;;;8.43;;
15130;SDS011;7666;50.920;4.628;2023-04-03T05:33:58;8.73;;;7.90;;
15130;SDS011;7666;50.920;4.628;2023-04-03T05:36:45;8.30;;;7.50;;
15130;SDS011;7666;50.920;4.628;2023-04-03T05:39:31;8.60;;;7.70;;
15130;SDS011;7666;50.920;4.628;2023-04-03T05:42:17;6.80;;;6.10;;
15130;SDS011;7666;50.920;4.628;2023-04-03T05:45:03;6.07;;;5.57;;
15130;SDS011;7666;50.920;4.628;2023-04-03T05:47:50;5.50;;;5.00;;
15130;SDS011;7666;50.920;4.628;2023-04-03T05:50:36;5.50;;;4.50;;
15130;SDS011;7666;50.920;4.628;2023-04-03T05:53:29;4.20;;;3.80;;
15130;SDS011;7666;50.920;4.628;2023-04-03T05:56:17;3.90;;;3.50;;
15130;SDS011;7666;50.920;4.628;2023-04-03T05:59:03;5.17;;;3.60;;
15130;SDS011;7666;50.920;4.628;2023-04-03T06:01:49;4.00;;;3.50;;
15130;SDS011;7666;50.920;4.628;2023-04-03T06:04:36;5.07;;;3.60;;
15130;SDS011;7666;50.920;4.628;2023-04-03T06:07:22;4.47;;;3.63;;
15130;SDS011;7666;50.920;4.628;2023-04-03T06:10:13;3.37;;;3.07;;
15130;SDS011;7666;50.920;4.628;2023-04-03T06:12:59;3.40;;;3.10;;
15130;SDS011;7666;50.920;4.628;2023-04-03T06:15:45;4.23;;;2.77;;
15130;SDS011;7666;50.920;4.628;2023-04-03T06:18:32;5.13;;;3.47;;
15130;SDS011;7666;50.920;4.628;2023-04-03T06:21:18;3.53;;;3.23;;
15130;SDS011;7666;50.920;4.628;2023-04-03T06:24:04;4.63;;;3.73;;
15130;SDS011;7666;50.920;4.628;2023-04-03T06:26:51;3.60;;;3.30;;
15130;SDS011;7666;50.920;4.628;2023-04-03T06:29:37;3.47;;;2.83;;
15130;SDS011;7666;50.920;4.628;2023-04-03T06:32:23;4.37;;;3.70;;
15130;SDS011;7666;50.920;4.628;2023-04-03T06:35:10;4.77;;;3.83;;
15130;SDS011;7666;50.920;4.628;2023-04-03T06:37:56;5.73;;;3.93;;
15130;SDS011;7666;50.920;4.628;2023-04-03T06:40:42;8.20;;;5.07;;
15130;SDS011;7666;50.920;4.628;2023-04-03T06:43:29;5.40;;;4.80;;
15130;SDS011;7666;50.920;4.628;2023-04-03T06:46:17;4.87;;;4.40;;
15130;SDS011;7666;50.920;4.628;2023-04-03T06:49:04;4.93;;;4.30;;
15130;SDS011;7666;50.920;4.628;2023-04-03T06:51:53;6.17;;;4.43;;
15130;SDS011;7666;50.920;4.628;2023-04-03T06:54:39;6.00;;;4.67;;
15130;SDS011;7666;50.920;4.628;2023-04-03T06:57:26;6.03;;;4.77;;
15130;SDS011;7666;50.920;4.628;2023-04-03T07:00:12;5.10;;;4.60;;
15130;SDS011;7666;50.920;4.628;2023-04-03T07:02:58;8.40;;;4.37;;
15130;SDS011;7666;50.920;4.628;2023-04-03T07:05:45;6.63;;;5.57;;
15130;SDS011;7666;50.920;4.628;2023-04-03T07:08:31;10.30;;;8.80;;
15130;SDS011;7666;50.920;4.628;2023-04-03T07:11:18;7.47;;;4.90;;
15130;SDS011;7666;50.920;4.628;2023-04-03T07:14:05;7.43;;;4.90;;
15130;SDS011;7666;50.920;4.628;2023-04-03T07:16:53;6.80;;;4.90;;
15130;SDS011;7666;50.920;4.628;2023-04-03T07:19:39;7.63;;;5.70;;
15130;SDS011;7666;50.920;4.628;2023-04-03T07:22:25;6.23;;;5.40;;
15130;SDS011;7666;50.920;4.628;2023-04-03T07:25:11;9.73;;;6.30;;
15130;SDS011;7666;50.920;4.628;2023-04-03T07:27:57;9.37;;;8.37;;
15130;SDS011;7666;50.920;4.628;2023-04-03T07:30:47;6.97;;;6.27;;
15130;SDS011;7666;50.920;4.628;2023-04-03T07:33:39;6.03;;;4.90;;
15130;SDS011;7666;50.920;4.628;2023-04-03T07:36:25;8.77;;;5.80;;
15130;SDS011;7666;50.920;4.628;2023-04-03T07:39:11;7.70;;;5.47;;
15130;SDS011;7666;50.920;4.628;2023-04-03T07:41:57;8.97;;;5.77;;
15130;SDS011;7666;50.920;4.628;2023-04-03T07:44:43;7.57;;;5.27;;
15130;SDS011;7666;50.920;4.628;2023-04-03T07:47:29;8.00;;;5.40;;
15130;SDS011;7666;50.920;4.628;2023-04-03T07:50:16;9.37;;;5.27;;
15130;SDS011;7666;50.920;4.628;2023-04-03T07:53:03;7.13;;;5.13;;
15130;SDS011;7666;50.920;4.628;2023-04-03T07:55:49;6.73;;;5.03;;
15130;SDS011;7666;50.920;4.628;2023-04-03T07:58:36;8.73;;;5.23;;
15130;SDS011;7666;50.920;4.628;2023-04-03T08:01:23;8.53;;;5.70;;
15130;SDS011;7666;50.920;4.628;2023-04-03T08:04:09;7.43;;;5.03;;
15130;SDS011;7666;50.920;4.628;2023-04-03T08:06:55;6.43;;;4.50;;
15130;SDS011;7666;50.920;4.628;2023-04-03T08:09:41;6.27;;;4.73;;
15130;SDS011;7666;50.920;4.628;2023-04-03T08:12:27;8.20;;;4.73;;
15130;SDS011;7666;50.920;4.628;2023-04-03T08:15:15;4.97;;;4.40;;
15130;SDS011;7666;50.920;4.628;2023-04-03T08:18:01;8.83;;;4.67;;
15130;SDS011;7666;50.920;4.628;2023-04-03T08:20:48;7.90;;;4.30;;
15130;SDS011;7666;50.920;4.628;2023-04-03T08:23:34;7.77;;;4.07;;
15130;SDS011;7666;50.920;4.628;2023-04-03T08:26:20;5.97;;;3.90;;
15130;SDS011;7666;50.920;4.628;2023-04-03T08:29:07;6.80;;;3.97;;
15130;SDS011;7666;50.920;4.628;2023-04-03T08:31:53;6.33;;;4.17;;
15130;SDS011;7666;50.920;4.628;2023-04-03T08:34:39;4.93;;;3.53;;
15130;SDS011;7666;50.920;4.628;2023-04-03T08:37:25;6.03;;;3.80;;
15130;SDS011;7666;50.920;4.628;2023-04-03T08:40:15;6.80;;;3.40;;
15130;SDS011;7666;50.920;4.628;2023-04-03T08:46:21;6.00;;;3.63;;
15130;SDS011;7666;50.920;4.628;2023-04-03T08:49:21;5.27;;;3.00;;
15130;SDS011;7666;50.920;4.628;2023-04-03T08:52:12;4.77;;;2.67;;
15130;SDS011;7666;50.920;4.628;2023-04-03T08:58:21;5.10;;;3.23;;
15130;SDS011;7666;50.920;4.628;2023-04-03T09:01:52;3.80;;;3.00;;
15130;SDS011;7666;50.920;4.628;2023-04-03T09:04:20;5.07;;;3.17;;
15130;SDS011;7666;50.920;4.628;2023-04-03T09:07:13;5.00;;;2.70;;
15130;SDS011;7666;50.920;4.628;2023-04-03T09:10:06;4.63;;;2.67;;
15130;SDS011;7666;50.920;4.628;2023-04-03T09:12:59;4.53;;;2.60;;
15130;SDS011;7666;50.920;4.628;2023-04-03T09:16:05;4.90;;;2.43;;
15130;SDS011;7666;50.920;4.628;2023-04-03T09:19:19;4.13;;;2.63;;
15130;SDS011;7666;50.920;4.628;2023-04-03T09:28:25;6.40;;;2.17;;
15130;SDS011;7666;50.920;4.628;2023-04-03T09:31:21;3.83;;;2.20;;
15130;SDS011;7666;50.920;4.628;2023-04-03T09:37:08;4.57;;;2.30;;
15130;SDS011;7666;50.920;4.628;2023-04-03T09:39:54;4.83;;;2.30;;
15130;SDS011;7666;50.920;4.628;2023-04-03T09:42:41;4.93;;;2.47;;
15130;SDS011;7666;50.920;4.628;2023-04-03T09:48:18;5.07;;;2.20;;
15130;SDS011;7666;50.920;4.628;2023-04-03T09:51:08;4.23;;;2.40;;
15130;SDS011;7666;50.920;4.628;2023-04-03T09:54:01;6.17;;;2.43;;
15130;SDS011;7666;50.920;4.628;2023-04-03T09:57:28;5.87;;;2.63;;
15130;SDS011;7666;50.920;4.628;2023-04-03T10:00:28;4.13;;;2.10;;
15130;SDS011;7666;50.920;4.628;2023-04-03T10:03:23;5.97;;;2.60;;
15130;SDS011;7666;50.920;4.628;2023-04-03T10:06:31;5.90;;;2.43;;
15130;SDS011;7666;50.920;4.628;2023-04-03T10:09:22;5.53;;;2.30;;
15130;SDS011;7666;50.920;4.628;2023-04-03T10:12:12;6.37;;;2.40;;
15130;SDS011;7666;50.920;4.628;2023-04-03T10:15:10;4.07;;;2.03;;
15130;SDS011;7666;50.920;4.628;2023-04-03T10:18:00;3.60;;;2.30;;
15130;SDS011;7666;50.920;4.628;2023-04-03T10:20:50;7.67;;;2.47;;
15130;SDS011;7666;50.920;4.628;2023-04-03T10:26:45;4.50;;;1.90;;
15130;SDS011;7666;50.920;4.628;2023-04-03T10:35:46;1.87;;;1.50;;
15130;SDS011;7666;50.920;4.628;2023-04-03T10:44:52;4.07;;;1.50;;
15130;SDS011;7666;50.920;4.628;2023-04-03T10:51:16;3.47;;;1.47;;
15130;SDS011;7666;50.920;4.628;2023-04-03T10:54:16;3.70;;;1.63;;
15130;SDS011;7666;50.920;4.628;2023-04-03T10:57:10;3.70;;;1.73;;
15130;SDS011;7666;50.920;4.628;2023-04-03T11:00:04;9.53;;;2.03;;
15130;SDS011;7666;50.920;4.628;2023-04-03T11:03:31;4.03;;;1.57;;
15130;SDS011;7666;50.920;4.628;2023-04-03T11:06:21;3.00;;;1.50;;
15130;SDS011;7666;50.920;4.628;2023-04-03T11:12:19;3.73;;;1.53;;
15130;SDS011;7666;50.920;4.628;2023-04-03T11:15:13;3.23;;;1.60;;
15130;SDS011;7666;50.920;4.628;2023-04-03T11:18:03;4.30;;;1.67;;
15130;SDS011;7666;50.920;4.628;2023-04-03T11:21:14;3.17;;;1.80;;
15130;SDS011;7666;50.920;4.628;2023-04-03T11:24:11;4.27;;;1.90;;
15130;SDS011;7666;50.920;4.628;2023-04-03T11:27:05;3.10;;;1.40;;
15130;SDS011;7666;50.920;4.628;2023-04-03T11:30:14;3.37;;;1.80;;
15130;SDS011;7666;50.920;4.628;2023-04-03T11:36:26;3.53;;;1.80;;
15130;SDS011;7666;50.920;4.628;2023-04-03T11:39:26;3.07;;;1.30;;
15130;SDS011;7666;50.920;4.628;2023-04-03T11:42:23;3.57;;;1.50;;
15130;SDS011;7666;50.920;4.628;2023-04-03T11:57:44;2.63;;;1.30;;
15130;SDS011;7666;50.920;4.628;2023-04-03T12:03:32;3.00;;;1.63;;
15130;SDS011;7666;50.920;4.628;2023-04-03T12:09:29;3.27;;;1.43;;
15130;SDS011;7666;50.920;4.628;2023-04-03T12:12:37;3.17;;;1.50;;
15130;SDS011;7666;50.920;4.628;2023-04-03T12:15:48;3.97;;;1.90;;
15130;SDS011;7666;50.920;4.628;2023-04-03T12:18:41;2.50;;;1.30;;
15130;SDS011;7666;50.920;4.628;2023-04-03T12:24:32;2.83;;;1.73;;
15130;SDS011;7666;50.920;4.628;2023-04-03T12:27:24;4.03;;;1.43;;
15130;SDS011;7666;50.920;4.628;2023-04-03T12:30:27;3.57;;;1.23;;
15130;SDS011;7666;50.920;4.628;2023-04-03T12:36:25;2.83;;;1.30;;
15130;SDS011;7666;50.920;4.628;2023-04-03T12:45:28;1.53;;;1.10;;
15130;SDS011;7666;50.920;4.628;2023-04-03T12:48:25;2.13;;;1.30;;
15130;SDS011;7666;50.920;4.628;2023-04-03T12:51:13;2.67;;;1.20;;
15130;SDS011;7666;50.920;4.628;2023-04-03T12:54:22;4.00;;;1.37;;
15130;SDS011;7666;50.920;4.628;2023-04-03T12:57:22;1.90;;;1.37;;
15130;SDS011;7666;50.920;4.628;2023-04-03T13:03:32;2.23;;;1.37;;
15130;SDS011;7666;50.920;4.628;2023-04-03T13:06:20;4.90;;;1.50;;
15130;SDS011;7666;50.920;4.628;2023-04-03T13:09:22;3.90;;;1.30;;
15130;SDS011;7666;50.920;4.628;2023-04-03T13:12:14;3.53;;;1.40;;
15130;SDS011;7666;50.920;4.628;2023-04-03T13:15:11;2.70;;;1.50;;
15130;SDS011;7666;50.920;4.628;2023-04-03T13:17:59;2.53;;;1.70;;
15130;SDS011;7666;50.920;4.628;2023-04-03T13:20:45;3.23;;;1.60;;
15130;SDS011;7666;50.920;4.628;2023-04-03T13:23:34;2.67;;;1.63;;
15130;SDS011;7666;50.920;4.628;2023-04-03T13:26:25;3.33;;;1.87;;
15130;SDS011;7666;50.920;4.628;2023-04-03T13:29:21;2.87;;;1.50;;
15130;SDS011;7666;50.920;4.628;2023-04-03T13:32:23;3.30;;;1.70;;
15130;SDS011;7666;50.920;4.628;2023-04-03T13:38:31;2.57;;;1.50;;
15130;SDS011;7666;50.920;4.628;2023-04-03T13:41:26;2.40;;;1.30;;
15130;SDS011;7666;50.920;4.628;2023-04-03T13:44:25;2.20;;;1.50;;
15130;SDS011;7666;50.920;4.628;2023-04-03T13:47:21;2.63;;;1.50;;
15130;SDS011;7666;50.920;4.628;2023-04-03T13:53:02;2.60;;;1.50;;
15130;SDS011;7666;50.920;4.628;2023-04-03T14:04:49;3.67;;;1.50;;
15130;SDS011;7666;50.920;4.628;2023-04-03T14:07:41;2.30;;;1.50;;
15130;SDS011;7666;50.920;4.628;2023-04-03T14:10:27;2.57;;;1.10;;
15130;SDS011;7666;50.920;4.628;2023-04-03T14:13:14;3.20;;;1.43;;
15130;SDS011;7666;50.920;4.628;2023-04-03T14:16:01;2.30;;;1.33;;
15130;SDS011;7666;50.920;4.628;2023-04-03T14:18:49;2.70;;;1.30;;
15130;SDS011;7666;50.920;4.628;2023-04-03T14:21:36;2.83;;;1.43;;
15130;SDS011;7666;50.920;4.628;2023-04-03T14:24:22;2.13;;;1.10;;
15130;SDS011;7666;50.920;4.628;2023-04-03T14:27:17;1.90;;;1.03;;
15130;SDS011;7666;50.920;4.628;2023-04-03T14:30:09;2.20;;;1.13;;
15130;SDS011;7666;50.920;4.628;2023-04-03T14:33:05;2.37;;;1.00;;
15130;SDS011;7666;50.920;4.628;2023-04-03T14:35:52;2.23;;;1.33;;
15130;SDS011;7666;50.920;4.628;2023-04-03T14:38:38;3.70;;;1.27;;
15130;SDS011;7666;50.920;4.628;2023-04-03T14:41:25;2.87;;;1.10;;
15130;SDS011;7666;50.920;4.628;2023-04-03T14:44:12;2.47;;;1.10;;
15130;SDS011;7666;50.920;4.628;2023-04-03T14:46:58;3.47;;;1.57;;
15130;SDS011;7666;50.920;4.628;2023-04-03T14:49:44;3.13;;;1.50;;
15130;SDS011;7666;50.920;4.628;2023-04-03T14:52:33;2.87;;;1.20;;
15130;SDS011;7666;50.920;4.628;2023-04-03T14:55:22;1.93;;;1.07;;
15130;SDS011;7666;50.920;4.628;2023-04-03T14:58:14;2.73;;;1.20;;
15130;SDS011;7666;50.920;4.628;2023-04-03T15:01:01;2.60;;;1.23;;
15130;SDS011;7666;50.920;4.628;2023-04-03T15:03:47;2.77;;;1.17;;
15130;SDS011;7666;50.920;4.628;2023-04-03T15:06:33;5.60;;;1.50;;
15130;SDS011;7666;50.920;4.628;2023-04-03T15:09:24;2.23;;;1.17;;
15130;SDS011;7666;50.920;4.628;2023-04-03T15:12:11;2.60;;;1.23;;
15130;SDS011;7666;50.920;4.628;2023-04-03T15:14:57;2.23;;;1.10;;
15130;SDS011;7666;50.920;4.628;2023-04-03T15:17:43;3.00;;;1.50;;
15130;SDS011;7666;50.920;4.628;2023-04-03T15:20:30;2.87;;;1.30;;
15130;SDS011;7666;50.920;4.628;2023-04-03T15:23:18;3.60;;;1.70;;
15130;SDS011;7666;50.920;4.628;2023-04-03T15:26:04;2.67;;;1.47;;
15130;SDS011;7666;50.920;4.628;2023-04-03T15:28:51;2.77;;;1.70;;
15130;SDS011;7666;50.920;4.628;2023-04-03T15:31:37;5.10;;;1.70;;
15130;SDS011;7666;50.920;4.628;2023-04-03T15:34:23;2.60;;;1.27;;
15130;SDS011;7666;50.920;4.628;2023-04-03T15:37:09;2.73;;;1.53;;
15130;SDS011;7666;50.920;4.628;2023-04-03T15:39:55;2.37;;;1.47;;
15130;SDS011;7666;50.920;4.628;2023-04-03T15:42:41;4.00;;;1.87;;
15130;SDS011;7666;50.920;4.628;2023-04-03T15:45:28;3.57;;;1.70;;
15130;SDS011;7666;50.920;4.628;2023-04-03T15:48:16;3.30;;;1.80;;
15130;SDS011;7666;50.920;4.628;2023-04-03T15:51:02;3.43;;;1.73;;
15130;SDS011;7666;50.920;4.628;2023-04-03T15:53:49;2.33;;;1.60;;
15130;SDS011;7666;50.920;4.628;2023-04-03T15:56:35;3.73;;;1.97;;
15130;SDS011;7666;50.920;4.628;2023-04-03T15:59:21;3.23;;;1.80;;
15130;SDS011;7666;50.920;4.628;2023-04-03T16:02:08;2.77;;;1.60;;
15130;SDS011;7666;50.920;4.628;2023-04-03T16:04:58;3.90;;;1.70;;
15130;SDS011;7666;50.920;4.628;2023-04-03T16:07:45;3.77;;;1.83;;
15130;SDS011;7666;50.920;4.628;2023-04-03T16:10:32;3.63;;;1.90;;
15130;SDS011;7666;50.920;4.628;2023-04-03T16:13:18;3.60;;;1.60;;
15130;SDS011;7666;50.920;4.628;2023-04-03T16:16:04;3.87;;;1.97;;
15130;SDS011;7666;50.920;4.628;2023-04-03T16:18:50;2.13;;;1.40;;
15130;SDS011;7666;50.920;4.628;2023-04-03T16:21:38;4.30;;;2.13;;
15130;SDS011;7666;50.920;4.628;2023-04-03T16:24:25;3.20;;;1.77;;
15130;SDS011;7666;50.920;4.628;2023-04-03T16:27:11;3.83;;;1.70;;
15130;SDS011;7666;50.920;4.628;2023-04-03T16:29:57;6.33;;;1.73;;
15130;SDS011;7666;50.920;4.628;2023-04-03T16:32:43;5.37;;;1.77;;
15130;SDS011;7666;50.920;4.628;2023-04-03T16:35:30;3.77;;;1.60;;
15130;SDS011;7666;50.920;4.628;2023-04-03T16:38:16;3.57;;;1.87;;
15130;SDS011;7666;50.920;4.628;2023-04-03T16:41:04;6.33;;;3.03;;
15130;SDS011;7666;50.920;4.628;2023-04-03T16:43:50;3.40;;;1.87;;
15130;SDS011;7666;50.920;4.628;2023-04-03T16:46:36;3.63;;;1.70;;
15130;SDS011;7666;50.920;4.628;2023-04-03T16:49:22;3.73;;;1.80;;
15130;SDS011;7666;50.920;4.628;2023-04-03T16:52:08;2.90;;;1.40;;
15130;SDS011;7666;50.920;4.628;2023-04-03T16:54:54;2.20;;;1.43;;
15130;SDS011;7666;50.920;4.628;2023-04-03T16:57:40;3.53;;;1.70;;
15130;SDS011;7666;50.920;4.628;2023-04-03T17:00:29;3.77;;;1.90;;
15130;SDS011;7666;50.920;4.628;2023-04-03T17:03:16;4.40;;;2.37;;
15130;SDS011;7666;50.920;4.628;2023-04-03T17:06:02;4.93;;;2.80;;
15130;SDS011;7666;50.920;4.628;2023-04-03T17:08:48;4.80;;;2.43;;
15130;SDS011;7666;50.920;4.628;2023-04-03T17:11:36;3.63;;;2.00;;
15130;SDS011;7666;50.920;4.628;2023-04-03T17:14:23;3.17;;;1.70;;
15130;SDS011;7666;50.920;4.628;2023-04-03T17:17:09;3.03;;;1.73;;
15130;SDS011;7666;50.920;4.628;2023-04-03T17:19:55;3.13;;;1.97;;
15130;SDS011;7666;50.920;4.628;2023-04-03T17:22:41;3.20;;;1.87;;
15130;SDS011;7666;50.920;4.628;2023-04-03T17:25:27;2.83;;;1.97;;
15130;SDS011;7666;50.920;4.628;2023-04-03T17:28:13;3.07;;;1.60;;
15130;SDS011;7666;50.920;4.628;2023-04-03T17:31:00;3.10;;;1.60;;
15130;SDS011;7666;50.920;4.628;2023-04-03T17:33:47;3.50;;;1.60;;
15130;SDS011;7666;50.920;4.628;2023-04-03T17:36:33;2.87;;;1.80;;
15130;SDS011;7666;50.920;4.628;2023-04-03T17:39:19;4.67;;;1.87;;
15130;SDS011;7666;50.920;4.628;2023-04-03T17:42:06;6.67;;;1.60;;
15130;SDS011;7666;50.920;4.628;2023-04-03T17:44:52;2.30;;;1.40;;
15130;SDS011;7666;50.920;4.628;2023-04-03T17:47:38;3.57;;;1.60;;
15130;SDS011;7666;50.920;4.628;2023-04-03T17:50:24;5.87;;;2.10;;
15130;SDS011;7666;50.920;4.628;2023-04-03T17:53:10;4.33;;;1.80;;
15130;SDS011;7666;50.920;4.628;2023-04-03T17:55:56;4.73;;;1.60;;
15130;SDS011;7666;50.920;4.628;2023-04-03T17:58:42;4.53;;;1.80;;
15130;SDS011;7666;50.920;4.628;2023-04-03T18:01:30;2.53;;;1.40;;
15130;SDS011;7666;50.920;4.628;2023-04-03T18:04:17;3.50;;;1.40;;
15130;SDS011;7666;50.920;4.628;2023-04-03T18:07:03;2.40;;;1.40;;
15130;SDS011;7666;50.920;4.628;2023-04-03T18:09:53;5.20;;;1.60;;
15130;SDS011;7666;50.920;4.628;2023-04-03T18:12:42;3.57;;;1.67;;
15130;SDS011;7666;50.920;4.628;2023-04-03T18:15:28;2.83;;;1.40;;
15130;SDS011;7666;50.920;4.628;2023-04-03T18:18:15;5.80;;;1.73;;
15130;SDS011;7666;50.920;4.628;2023-04-03T18:21:01;4.00;;;1.90;;
15130;SDS011;7666;50.920;4.628;2023-04-03T18:23:49;5.77;;;2.80;;
15130;SDS011;7666;50.920;4.628;2023-04-03T18:26:38;4.93;;;2.63;;
15130;SDS011;7666;50.920;4.628;2023-04-03T18:29:25;3.33;;;1.63;;
15130;SDS011;7666;50.920;4.628;2023-04-03T18:32:15;3.57;;;1.90;;
15130;SDS011;7666;50.920;4.628;2023-04-03T18:35:02;6.67;;;1.97;;
15130;SDS011;7666;50.920;4.628;2023-04-03T18:37:49;3.80;;;1.93;;
15130;SDS011;7666;50.920;4.628;2023-04-03T18:40:35;4.47;;;2.07;;
15130;SDS011;7666;50.920;4.628;2023-04-03T18:43:22;3.73;;;1.80;;
15130;SDS011;7666;50.920;4.628;2023-04-03T18:46:10;2.67;;;1.77;;
15130;SDS011;7666;50.920;4.628;2023-04-03T18:48:56;2.77;;;1.57;;